Terminal Aerodrome Forecast
Issued by NWS Jackson, MS

Home | Current Version | Previous Version | Text Only | Print | Product List | Glossary On
Versions: 1 2 3 4 5 6 7 8 9 10 11 12 13 14 15
000
FTUS44 KMEG 261140
TAFTUP
TAF
KTUP 261140Z 2612/2712 03008KT P6SM VCSH SCT009 BKN040
      TEMPO 2612/2614 5SM -RA BR OVC009
     FM261400 36012KT 5SM -RA BR OVC009
     FM261800 36015G20KT P6SM -RA OVC015
     FM262000 01013KT P6SM VCSH OVC025
     FM262300 01010KT P6SM BKN035
     FM270200 01003KT P6SM SCT250
      AMD NOT SKED=

USA.gov is the U.S. government's official web portal to all federal, state and local government web resources and services.